sensor_id;sensor_type;location;lat;lon;timestamp;pressure;altitude;pressure_sealevel;temperature;humidity
10716;BME280;5409;42.620;23.316;2022-11-27T00:02:04;93037.94;;;0.08;100.00
10716;BME280;5409;42.620;23.316;2022-11-27T00:04:30;93036.78;;;0.05;100.00
10716;BME280;5409;42.620;23.316;2022-11-27T00:06:57;93037.53;;;0.06;100.00
10716;BME280;5409;42.620;23.316;2022-11-27T00:09:27;93037.19;;;0.07;100.00
10716;BME280;5409;42.620;23.316;2022-11-27T00:11:54;93036.81;;;0.09;100.00
10716;BME280;5409;42.620;23.316;2022-11-27T00:14:21;93041.41;;;0.08;100.00
10716;BME280;5409;42.620;23.316;2022-11-27T00:16:49;93033.50;;;0.15;100.00
10716;BME280;5409;42.620;23.316;2022-11-27T00:19:18;93028.06;;;0.12;100.00
10716;BME280;5409;42.620;23.316;2022-11-27T00:21:45;93034.25;;;0.16;100.00
10716;BME280;5409;42.620;23.316;2022-11-27T00:24:12;93046.91;;;0.15;100.00
10716;BME280;5409;42.620;23.316;2022-11-27T00:26:38;93043.84;;;0.17;100.00
10716;BME280;5409;42.620;23.316;2022-11-27T00:29:05;93040.28;;;0.09;100.00
10716;BME280;5409;42.620;23.316;2022-11-27T00:31:33;93055.72;;;0.16;100.00
10716;BME280;5409;42.620;23.316;2022-11-27T00:34:05;93054.75;;;0.05;100.00
10716;BME280;5409;42.620;23.316;2022-11-27T00:36:33;93044.81;;;0.05;100.00
10716;BME280;5409;42.620;23.316;2022-11-27T00:39:00;93050.94;;;0.06;100.00
10716;BME280;5409;42.620;23.316;2022-11-27T00:41:28;93057.06;;;0.06;100.00
10716;BME280;5409;42.620;23.316;2022-11-27T00:43:55;93051.84;;;0.13;100.00
10716;BME280;5409;42.620;23.316;2022-11-27T00:46:24;93054.53;;;0.13;100.00
10716;BME280;5409;42.620;23.316;2022-11-27T00:48:51;93058.09;;;0.21;100.00
10716;BME280;5409;42.620;23.316;2022-11-27T00:51:21;93050.34;;;0.16;100.00
10716;BME280;5409;42.620;23.316;2022-11-27T00:53:48;93045.41;;;0.18;100.00
10716;BME280;5409;42.620;23.316;2022-11-27T00:56:16;93048.13;;;0.21;100.00
10716;BME280;5409;42.620;23.316;2022-11-27T00:58:43;93050.91;;;0.25;100.00
10716;BME280;5409;42.620;23.316;2022-11-27T01:01:14;93045.25;;;0.30;100.00
10716;BME280;5409;42.620;23.316;2022-11-27T01:03:41;93045.28;;;0.33;100.00
10716;BME280;5409;42.620;23.316;2022-11-27T01:06:08;93057.50;;;0.31;100.00
10716;BME280;5409;42.620;23.316;2022-11-27T01:08:37;93047.97;;;0.33;100.00
10716;BME280;5409;42.620;23.316;2022-11-27T01:11:04;93041.06;;;0.32;100.00
10716;BME280;5409;42.620;23.316;2022-11-27T01:13:33;93038.75;;;0.31;100.00
10716;BME280;5409;42.620;23.316;2022-11-27T01:16:02;93032.19;;;0.28;100.00
10716;BME280;5409;42.620;23.316;2022-11-27T01:18:29;93018.56;;;0.14;100.00
10716;BME280;5409;42.620;23.316;2022-11-27T01:20:56;93023.97;;;0.18;100.00
10716;BME280;5409;42.620;23.316;2022-11-27T01:23:23;93020.88;;;0.16;100.00
10716;BME280;5409;42.620;23.316;2022-11-27T01:25:51;93028.31;;;0.26;100.00
10716;BME280;5409;42.620;23.316;2022-11-27T01:28:24;93033.59;;;0.22;100.00
10716;BME280;5409;42.620;23.316;2022-11-27T01:30:51;93033.09;;;0.13;100.00
10716;BME280;5409;42.620;23.316;2022-11-27T01:33:18;93019.56;;;0.06;100.00
10716;BME280;5409;42.620;23.316;2022-11-27T01:35:52;93022.16;;;0.03;100.00
10716;BME280;5409;42.620;23.316;2022-11-27T01:38:19;93018.25;;;-0.03;100.00
10716;BME280;5409;42.620;23.316;2022-11-27T01:40:46;93012.69;;;-0.13;100.00
10716;BME280;5409;42.620;23.316;2022-11-27T01:43:15;93015.16;;;-0.05;100.00
10716;BME280;5409;42.620;23.316;2022-11-27T01:45:43;93017.47;;;-0.03;100.00
10716;BME280;5409;42.620;23.316;2022-11-27T01:48:11;93006.41;;;-0.02;100.00
10716;BME280;5409;42.620;23.316;2022-11-27T01:50:39;93009.41;;;-0.03;100.00
10716;BME280;5409;42.620;23.316;2022-11-27T01:53:09;93000.38;;;0.04;100.00
10716;BME280;5409;42.620;23.316;2022-11-27T01:55:41;93003.59;;;0.13;100.00
10716;BME280;5409;42.620;23.316;2022-11-27T01:58:12;93004.75;;;0.12;100.00
10716;BME280;5409;42.620;23.316;2022-11-27T02:00:40;93016.81;;;0.25;100.00
10716;BME280;5409;42.620;23.316;2022-11-27T02:03:07;93008.53;;;0.34;100.00
10716;BME280;5409;42.620;23.316;2022-11-27T02:05:34;93012.03;;;0.38;100.00
10716;BME280;5409;42.620;23.316;2022-11-27T02:08:05;93005.19;;;0.40;100.00
10716;BME280;5409;42.620;23.316;2022-11-27T02:10:45;93002.97;;;0.46;100.00
10716;BME280;5409;42.620;23.316;2022-11-27T02:13:17;93010.78;;;0.54;100.00
10716;BME280;5409;42.620;23.316;2022-11-27T02:15:54;93008.19;;;0.61;100.00
10716;BME280;5409;42.620;23.316;2022-11-27T02:18:28;93009.81;;;0.66;100.00
10716;BME280;5409;42.620;23.316;2022-11-27T02:21:00;93011.81;;;0.72;100.00
10716;BME280;5409;42.620;23.316;2022-11-27T02:29:32;93006.91;;;0.78;100.00
10716;BME280;5409;42.620;23.316;2022-11-27T02:32:06;93015.44;;;0.83;100.00
10716;BME280;5409;42.620;23.316;2022-11-27T02:34:42;93013.56;;;0.87;100.00
10716;BME280;5409;42.620;23.316;2022-11-27T02:37:14;93019.34;;;0.89;100.00
10716;BME280;5409;42.620;23.316;2022-11-27T02:39:50;93012.38;;;0.85;100.00
10716;BME280;5409;42.620;23.316;2022-11-27T02:42:20;93022.53;;;0.98;100.00
10716;BME280;5409;42.620;23.316;2022-11-27T02:44:54;93016.09;;;1.03;100.00
10716;BME280;5409;42.620;23.316;2022-11-27T02:47:23;93020.66;;;1.02;100.00
10716;BME280;5409;42.620;23.316;2022-11-27T02:49:50;93016.13;;;1.06;100.00
10716;BME280;5409;42.620;23.316;2022-11-27T02:52:22;93024.97;;;1.07;100.00
10716;BME280;5409;42.620;23.316;2022-11-27T02:54:51;93026.84;;;1.06;100.00
10716;BME280;5409;42.620;23.316;2022-11-27T02:57:19;93024.91;;;1.03;100.00
10716;BME280;5409;42.620;23.316;2022-11-27T02:59:49;93016.50;;;1.05;100.00
10716;BME280;5409;42.620;23.316;2022-11-27T03:02:19;93021.47;;;1.03;100.00
10716;BME280;5409;42.620;23.316;2022-11-27T03:04:50;93002.63;;;0.73;100.00
10716;BME280;5409;42.620;23.316;2022-11-27T03:07:23;93016.25;;;0.87;100.00
10716;BME280;5409;42.620;23.316;2022-11-27T03:09:53;93019.69;;;0.88;100.00
10716;BME280;5409;42.620;23.316;2022-11-27T03:12:23;93026.19;;;0.87;100.00
10716;BME280;5409;42.620;23.316;2022-11-27T03:14:51;93015.34;;;0.80;100.00
10716;BME280;5409;42.620;23.316;2022-11-27T03:17:33;93025.78;;;0.85;100.00
10716;BME280;5409;42.620;23.316;2022-11-27T03:20:08;93032.28;;;0.84;100.00
10716;BME280;5409;42.620;23.316;2022-11-27T03:22:36;93024.97;;;0.81;100.00
10716;BME280;5409;42.620;23.316;2022-11-27T03:25:03;93027.63;;;0.81;100.00
10716;BME280;5409;42.620;23.316;2022-11-27T03:27:33;93007.88;;;0.66;100.00
10716;BME280;5409;42.620;23.316;2022-11-27T03:30:07;93035.34;;;0.82;100.00
10716;BME280;5409;42.620;23.316;2022-11-27T03:32:34;93026.06;;;0.76;100.00
10716;BME280;5409;42.620;23.316;2022-11-27T03:35:00;93025.34;;;0.79;100.00
10716;BME280;5409;42.620;23.316;2022-11-27T03:37:27;93020.31;;;0.78;100.00
10716;BME280;5409;42.620;23.316;2022-11-27T03:39:54;93025.53;;;0.67;100.00
10716;BME280;5409;42.620;23.316;2022-11-27T03:42:25;93025.91;;;0.66;100.00
10716;BME280;5409;42.620;23.316;2022-11-27T03:44:59;93020.16;;;0.67;100.00
10716;BME280;5409;42.620;23.316;2022-11-27T03:47:43;93016.59;;;0.60;100.00
10716;BME280;5409;42.620;23.316;2022-11-27T03:50:20;92993.22;;;0.34;100.00
10716;BME280;5409;42.620;23.316;2022-11-27T03:52:54;93013.75;;;0.49;100.00
10716;BME280;5409;42.620;23.316;2022-11-27T03:55:30;93018.00;;;0.50;100.00
10716;BME280;5409;42.620;23.316;2022-11-27T03:58:00;92996.72;;;0.38;100.00
10716;BME280;5409;42.620;23.316;2022-11-27T04:00:31;93017.16;;;0.46;100.00
10716;BME280;5409;42.620;23.316;2022-11-27T04:03:02;93011.81;;;0.46;100.00
10716;BME280;5409;42.620;23.316;2022-11-27T04:05:29;93019.44;;;0.44;100.00
10716;BME280;5409;42.620;23.316;2022-11-27T04:07:56;93017.75;;;0.36;100.00
10716;BME280;5409;42.620;23.316;2022-11-27T04:10:23;93009.25;;;0.31;100.00
10716;BME280;5409;42.620;23.316;2022-11-27T04:12:50;93006.56;;;0.31;100.00
10716;BME280;5409;42.620;23.316;2022-11-27T04:15:16;93011.22;;;0.34;100.00
10716;BME280;5409;42.620;23.316;2022-11-27T04:17:43;93010.91;;;0.39;100.00
10716;BME280;5409;42.620;23.316;2022-11-27T04:20:13;93003.34;;;0.44;100.00
10716;BME280;5409;42.620;23.316;2022-11-27T04:22:40;93000.25;;;0.42;100.00
10716;BME280;5409;42.620;23.316;2022-11-27T04:25:07;93004.50;;;0.47;100.00
10716;BME280;5409;42.620;23.316;2022-11-27T04:27:34;93011.91;;;0.53;100.00
10716;BME280;5409;42.620;23.316;2022-11-27T04:30:01;93010.41;;;0.56;100.00
10716;BME280;5409;42.620;23.316;2022-11-27T04:32:27;93005.50;;;0.61;100.00
10716;BME280;5409;42.620;23.316;2022-11-27T04:34:54;93009.81;;;0.66;100.00
10716;BME280;5409;42.620;23.316;2022-11-27T04:37:22;93012.53;;;0.69;100.00
10716;BME280;5409;42.620;23.316;2022-11-27T04:39:49;93018.63;;;0.66;100.00
10716;BME280;5409;42.620;23.316;2022-11-27T04:42:15;93027.38;;;0.63;100.00
10716;BME280;5409;42.620;23.316;2022-11-27T04:44:42;93021.28;;;0.66;100.00
10716;BME280;5409;42.620;23.316;2022-11-27T04:47:09;93038.53;;;0.65;100.00
10716;BME280;5409;42.620;23.316;2022-11-27T04:49:35;93012.91;;;0.68;100.00
10716;BME280;5409;42.620;23.316;2022-11-27T04:52:02;93024.09;;;0.73;100.00
10716;BME280;5409;42.620;23.316;2022-11-27T04:54:31;93025.59;;;0.71;100.00
10716;BME280;5409;42.620;23.316;2022-11-27T04:56:57;93037.03;;;0.68;100.00
10716;BME280;5409;42.620;23.316;2022-11-27T04:59:24;93030.88;;;0.67;100.00
10716;BME280;5409;42.620;23.316;2022-11-27T05:01:51;93017.84;;;0.66;100.00
10716;BME280;5409;42.620;23.316;2022-11-27T05:04:19;93018.63;;;0.66;100.00
10716;BME280;5409;42.620;23.316;2022-11-27T05:06:45;93028.50;;;0.62;100.00
10716;BME280;5409;42.620;23.316;2022-11-27T05:09:12;93021.19;;;0.59;100.00
10716;BME280;5409;42.620;23.316;2022-11-27T05:11:40;93017.38;;;0.60;100.00
10716;BME280;5409;42.620;23.316;2022-11-27T05:14:07;93020.56;;;0.69;100.00
10716;BME280;5409;42.620;23.316;2022-11-27T05:16:46;93024.47;;;0.72;100.00
10716;BME280;5409;42.620;23.316;2022-11-27T05:19:14;93028.31;;;0.74;100.00
10716;BME280;5409;42.620;23.316;2022-11-27T05:21:42;93024.47;;;0.72;100.00
10716;BME280;5409;42.620;23.316;2022-11-27T05:24:09;93013.66;;;0.68;100.00
10716;BME280;5409;42.620;23.316;2022-11-27T05:26:37;93016.72;;;0.67;100.00
10716;BME280;5409;42.620;23.316;2022-11-27T05:29:06;93026.78;;;0.73;100.00
10716;BME280;5409;42.620;23.316;2022-11-27T05:31:33;93029.03;;;0.71;100.00
10716;BME280;5409;42.620;23.316;2022-11-27T05:34:00;93023.63;;;0.68;100.00
10716;BME280;5409;42.620;23.316;2022-11-27T05:36:27;93019.69;;;0.62;100.00
10716;BME280;5409;42.620;23.316;2022-11-27T05:38:54;93032.31;;;0.61;100.00
10716;BME280;5409;42.620;23.316;2022-11-27T05:41:21;93028.06;;;0.57;100.00
10716;BME280;5409;42.620;23.316;2022-11-27T05:43:48;93031.50;;;0.57;100.00
10716;BME280;5409;42.620;23.316;2022-11-27T05:46:18;93036.13;;;0.60;100.00
10716;BME280;5409;42.620;23.316;2022-11-27T05:48:45;93042.34;;;0.64;100.00
10716;BME280;5409;42.620;23.316;2022-11-27T05:51:12;93040.38;;;0.61;100.00
10716;BME280;5409;42.620;23.316;2022-11-27T05:53:39;93046.94;;;0.64;100.00
10716;BME280;5409;42.620;23.316;2022-11-27T05:56:08;93039.25;;;0.62;100.00
10716;BME280;5409;42.620;23.316;2022-11-27T05:58:36;93049.22;;;0.62;100.00
10716;BME280;5409;42.620;23.316;2022-11-27T06:01:03;93038.91;;;0.64;100.00
10716;BME280;5409;42.620;23.316;2022-11-27T06:03:31;93051.53;;;0.63;100.00
10716;BME280;5409;42.620;23.316;2022-11-27T06:05:58;93054.63;;;0.65;100.00
10716;BME280;5409;42.620;23.316;2022-11-27T06:08:30;93050.63;;;0.56;100.00
10716;BME280;5409;42.620;23.316;2022-11-27T06:10:57;93061.91;;;0.65;100.00
10716;BME280;5409;42.620;23.316;2022-11-27T06:13:23;93052.78;;;0.69;100.00
10716;BME280;5409;42.620;23.316;2022-11-27T06:15:50;93057.47;;;0.76;100.00
10716;BME280;5409;42.620;23.316;2022-11-27T06:18:17;93057.16;;;0.81;100.00
10716;BME280;5409;42.620;23.316;2022-11-27T06:20:45;93050.34;;;0.87;100.00
10716;BME280;5409;42.620;23.316;2022-11-27T06:23:11;93060.00;;;0.91;100.00
10716;BME280;5409;42.620;23.316;2022-11-27T06:25:38;93066.97;;;0.96;100.00
10716;BME280;5409;42.620;23.316;2022-11-27T06:28:05;93063.44;;;0.88;100.00
10716;BME280;5409;42.620;23.316;2022-11-27T06:30:31;93057.63;;;0.86;100.00
10716;BME280;5409;42.620;23.316;2022-11-27T06:32:58;93062.34;;;0.93;100.00
10716;BME280;5409;42.620;23.316;2022-11-27T06:35:25;93059.28;;;0.94;100.00
10716;BME280;5409;42.620;23.316;2022-11-27T06:37:53;93053.56;;;0.96;100.00
10716;BME280;5409;42.620;23.316;2022-11-27T06:40:20;93055.56;;;1.02;100.00
10716;BME280;5409;42.620;23.316;2022-11-27T06:42:46;93052.25;;;1.12;100.00
10716;BME280;5409;42.620;23.316;2022-11-27T06:45:13;93064.47;;;1.09;100.00
10716;BME280;5409;42.620;23.316;2022-11-27T06:47:40;93061.06;;;1.12;100.00
10716;BME280;5409;42.620;23.316;2022-11-27T06:50:07;93068.34;;;1.09;100.00
10716;BME280;5409;42.620;23.316;2022-11-27T06:52:34;93061.78;;;1.09;100.00
10716;BME280;5409;42.620;23.316;2022-11-27T06:55:02;93061.56;;;1.18;100.00
10716;BME280;5409;42.620;23.316;2022-11-27T06:57:29;93065.41;;;1.20;100.00
10716;BME280;5409;42.620;23.316;2022-11-27T06:59:55;93068.19;;;1.27;100.00
10716;BME280;5409;42.620;23.316;2022-11-27T07:02:22;93067.88;;;1.32;100.00
10716;BME280;5409;42.620;23.316;2022-11-27T07:04:49;93064.50;;;1.39;100.00
10716;BME280;5409;42.620;23.316;2022-11-27T07:07:15;93061.09;;;1.42;100.00
10716;BME280;5409;42.620;23.316;2022-11-27T07:09:42;93059.28;;;1.49;100.00
10716;BME280;5409;42.620;23.316;2022-11-27T07:12:10;93058.19;;;1.54;100.00
10716;BME280;5409;42.620;23.316;2022-11-27T07:14:37;93055.94;;;1.59;100.00
10716;BME280;5409;42.620;23.316;2022-11-27T07:17:03;93056.75;;;1.60;100.00
10716;BME280;5409;42.620;23.316;2022-11-27T07:19:30;93058.28;;;1.61;100.00
10716;BME280;5409;42.620;23.316;2022-11-27T07:21:57;93057.94;;;1.66;100.00
10716;BME280;5409;42.620;23.316;2022-11-27T07:24:24;93047.34;;;1.76;100.00
10716;BME280;5409;42.620;23.316;2022-11-27T07:26:50;93047.75;;;1.78;100.00
10716;BME280;5409;42.620;23.316;2022-11-27T07:29:18;93056.25;;;1.84;100.00
10716;BME280;5409;42.620;23.316;2022-11-27T07:31:45;93062.34;;;1.81;100.00
10716;BME280;5409;42.620;23.316;2022-11-27T07:34:12;93060.00;;;1.76;100.00
10716;BME280;5409;42.620;23.316;2022-11-27T07:36:38;93058.50;;;1.78;100.00
10716;BME280;5409;42.620;23.316;2022-11-27T07:39:05;93052.03;;;1.86;100.00
10716;BME280;5409;42.620;23.316;2022-11-27T07:41:32;93054.69;;;1.83;100.00
10716;BME280;5409;42.620;23.316;2022-11-27T07:43:59;93055.53;;;1.87;100.00
10716;BME280;5409;42.620;23.316;2022-11-27T07:46:27;93051.28;;;1.86;100.00
10716;BME280;5409;42.620;23.316;2022-11-27T07:48:54;93058.28;;;1.94;100.00
10716;BME280;5409;42.620;23.316;2022-11-27T07:51:21;93054.13;;;2.00;100.00
10716;BME280;5409;42.620;23.316;2022-11-27T07:53:48;93051.09;;;2.05;100.00
10716;BME280;5409;42.620;23.316;2022-11-27T07:56:16;93050.75;;;2.06;100.00
10716;BME280;5409;42.620;23.316;2022-11-27T07:58:43;93052.31;;;2.11;100.00
10716;BME280;5409;42.620;23.316;2022-11-27T08:01:12;93051.97;;;2.16;100.00
10716;BME280;5409;42.620;23.316;2022-11-27T08:03:40;93035.78;;;2.09;100.00
10716;BME280;5409;42.620;23.316;2022-11-27T08:06:14;93050.13;;;2.23;100.00
10716;BME280;5409;42.620;23.316;2022-11-27T08:08:42;93055.56;;;2.26;100.00
10716;BME280;5409;42.620;23.316;2022-11-27T08:11:17;93058.25;;;2.26;100.00
10716;BME280;5409;42.620;23.316;2022-11-27T08:13:45;93047.44;;;2.23;100.00
10716;BME280;5409;42.620;23.316;2022-11-27T08:16:12;93054.03;;;2.29;100.00
10716;BME280;5409;42.620;23.316;2022-11-27T08:18:40;93062.91;;;2.29;100.00
10716;BME280;5409;42.620;23.316;2022-11-27T08:21:06;93061.75;;;2.30;100.00
10716;BME280;5409;42.620;23.316;2022-11-27T08:23:33;93059.50;;;2.36;100.00
10716;BME280;5409;42.620;23.316;2022-11-27T08:26:04;93061.44;;;2.35;100.00
10716;BME280;5409;42.620;23.316;2022-11-27T08:28:31;93063.25;;;2.28;100.00
10716;BME280;5409;42.620;23.316;2022-11-27T08:30:59;93062.91;;;2.29;100.00
10716;BME280;5409;42.620;23.316;2022-11-27T08:33:26;93061.38;;;2.32;100.00
10716;BME280;5409;42.620;23.316;2022-11-27T08:35:54;93054.53;;;2.41;100.00
10716;BME280;5409;42.620;23.316;2022-11-27T08:38:22;93060.31;;;2.40;100.00
10716;BME280;5409;42.620;23.316;2022-11-27T08:40:55;93061.03;;;2.33;100.00
10716;BME280;5409;42.620;23.316;2022-11-27T08:43:23;93060.28;;;2.36;100.00
10716;BME280;5409;42.620;23.316;2022-11-27T08:45:50;93057.19;;;2.34;100.00
10716;BME280;5409;42.620;23.316;2022-11-27T08:48:18;93056.06;;;2.39;100.00
10716;BME280;5409;42.620;23.316;2022-11-27T08:50:44;93050.34;;;2.44;100.00
10716;BME280;5409;42.620;23.316;2022-11-27T08:53:13;93043.44;;;2.46;100.00
10716;BME280;5409;42.620;23.316;2022-11-27T08:55:39;93046.53;;;2.45;100.00
10716;BME280;5409;42.620;23.316;2022-11-27T08:58:06;93040.81;;;2.50;100.00
10716;BME280;5409;42.620;23.316;2022-11-27T09:00:33;93045.03;;;2.51;100.00
10716;BME280;5409;42.620;23.316;2022-11-27T09:03:00;93039.69;;;2.54;100.00
10716;BME280;5409;42.620;23.316;2022-11-27T09:05:28;93041.31;;;2.66;100.00
10716;BME280;5409;42.620;23.316;2022-11-27T09:07:55;93044.06;;;2.76;100.00
10716;BME280;5409;42.620;23.316;2022-11-27T09:10:24;93038.78;;;2.87;100.00
10716;BME280;5409;42.620;23.316;2022-11-27T09:12:51;93040.69;;;2.83;100.00
10716;BME280;5409;42.620;23.316;2022-11-27T09:15:20;93041.44;;;2.80;100.00
10716;BME280;5409;42.620;23.316;2022-11-27T09:17:47;93039.94;;;2.86;100.00
10716;BME280;5409;42.620;23.316;2022-11-27T09:20:13;93040.69;;;2.86;100.00
10716;BME280;5409;42.620;23.316;2022-11-27T09:22:40;93030.00;;;2.97;100.00
10716;BME280;5409;42.620;23.316;2022-11-27T09:25:08;93035.88;;;3.09;100.00
10716;BME280;5409;42.620;23.316;2022-11-27T09:27:37;93023.19;;;3.13;100.00
10716;BME280;5409;42.620;23.316;2022-11-27T09:30:06;93029.81;;;3.23;100.00
10716;BME280;5409;42.620;23.316;2022-11-27T09:32:33;93019.44;;;3.25;100.00
10716;BME280;5409;42.620;23.316;2022-11-27T09:35:00;93020.97;;;3.29;100.00
10716;BME280;5409;42.620;23.316;2022-11-27T09:37:26;93020.97;;;3.26;100.00
10716;BME280;5409;42.620;23.316;2022-11-27T09:39:53;93025.69;;;3.46;100.00
10716;BME280;5409;42.620;23.316;2022-11-27T09:42:33;93021.91;;;3.64;100.00
10716;BME280;5409;42.620;23.316;2022-11-27T09:45:05;93031.66;;;3.90;100.00
10716;BME280;5409;42.620;23.316;2022-11-27T09:47:37;93021.69;;;4.08;100.00
10716;BME280;5409;42.620;23.316;2022-11-27T09:50:12;93021.31;;;4.09;100.00
10716;BME280;5409;42.620;23.316;2022-11-27T09:52:41;93020.19;;;4.14;100.00
10716;BME280;5409;42.620;23.316;2022-11-27T09:55:13;93026.75;;;4.23;100.00
10716;BME280;5409;42.620;23.316;2022-11-27T09:57:40;93013.66;;;4.29;100.00
10716;BME280;5409;42.620;23.316;2022-11-27T10:00:14;93002.88;;;4.43;100.00
10716;BME280;5409;42.620;23.316;2022-11-27T10:02:41;93010.22;;;4.56;100.00
10716;BME280;5409;42.620;23.316;2022-11-27T10:05:16;93006.75;;;4.59;100.00
10716;BME280;5409;42.620;23.316;2022-11-27T10:10:39;93014.06;;;4.83;100.00
10716;BME280;5409;42.620;23.316;2022-11-27T10:13:29;93003.66;;;4.85;100.00
10716;BME280;5409;42.620;23.316;2022-11-27T10:16:08;93011.00;;;4.67;100.00
10716;BME280;5409;42.620;23.316;2022-11-27T10:18:39;93005.59;;;4.77;100.00
10716;BME280;5409;42.620;23.316;2022-11-27T10:21:14;92984.78;;;4.81;100.00
10716;BME280;5409;42.620;23.316;2022-11-27T10:23:48;92998.25;;;4.95;100.00
10716;BME280;5409;42.620;23.316;2022-11-27T10:26:18;92991.31;;;4.94;100.00
10716;BME280;5409;42.620;23.316;2022-11-27T10:28:53;92982.44;;;5.08;100.00
10716;BME280;5409;42.620;23.316;2022-11-27T10:31:32;92975.44;;;5.24;100.00
10716;BME280;5409;42.620;23.316;2022-11-27T10:34:02;92980.78;;;5.45;100.00
10716;BME280;5409;42.620;23.316;2022-11-27T10:36:34;92979.22;;;5.48;100.00
10716;BME280;5409;42.620;23.316;2022-11-27T10:39:03;92975.00;;;5.36;100.00
10716;BME280;5409;42.620;23.316;2022-11-27T10:41:38;92964.97;;;5.33;100.00
10716;BME280;5409;42.620;23.316;2022-11-27T10:44:21;92980.81;;;5.38;100.00
10716;BME280;5409;42.620;23.316;2022-11-27T10:46:52;92973.47;;;5.28;100.00
10716;BME280;5409;42.620;23.316;2022-11-27T10:49:20;92973.09;;;5.33;100.00
10716;BME280;5409;42.620;23.316;2022-11-27T10:51:47;92966.53;;;5.45;100.00
10716;BME280;5409;42.620;23.316;2022-11-27T10:54:21;92959.91;;;5.53;100.00
10716;BME280;5409;42.620;23.316;2022-11-27T10:57:01;92965.66;;;5.61;100.00
10716;BME280;5409;42.620;23.316;2022-11-27T10:59:36;92958.75;;;5.57;100.00
10716;BME280;5409;42.620;23.316;2022-11-27T11:02:24;92968.38;;;5.61;100.00
10716;BME280;5409;42.620;23.316;2022-11-27T11:04:51;92963.38;;;5.57;100.00
10716;BME280;5409;42.620;23.316;2022-11-27T11:07:24;92964.13;;;5.60;100.00
10716;BME280;5409;42.620;23.316;2022-11-27T11:09:52;92955.19;;;5.67;100.00
10716;BME280;5409;42.620;23.316;2022-11-27T11:12:21;92971.44;;;5.70;100.00
10716;BME280;5409;42.620;23.316;2022-11-27T11:14:49;92962.91;;;5.75;100.00
10716;BME280;5409;42.620;23.316;2022-11-27T11:17:23;92964.84;;;5.82;100.00
10716;BME280;5409;42.620;23.316;2022-11-27T11:19:51;92957.91;;;5.77;100.00
10716;BME280;5409;42.620;23.316;2022-11-27T11:22:18;92953.63;;;5.76;100.00
10716;BME280;5409;42.620;23.316;2022-11-27T11:24:47;92942.81;;;5.80;100.00
10716;BME280;5409;42.620;23.316;2022-11-27T11:27:16;92946.25;;;5.87;100.00
10716;BME280;5409;42.620;23.316;2022-11-27T11:29:47;92941.59;;;5.91;100.00
10716;BME280;5409;42.620;23.316;2022-11-27T11:32:22;92938.13;;;5.91;100.00
10716;BME280;5409;42.620;23.316;2022-11-27T11:34:50;92931.56;;;5.92;100.00
10716;BME280;5409;42.620;23.316;2022-11-27T11:37:22;92935.78;;;5.96;100.00
10716;BME280;5409;42.620;23.316;2022-11-27T11:39:54;92935.41;;;5.98;100.00
10716;BME280;5409;42.620;23.316;2022-11-27T11:42:24;92925.38;;;5.95;100.00
10716;BME280;5409;42.620;23.316;2022-11-27T11:44:53;92922.66;;;5.91;100.00
10716;BME280;5409;42.620;23.316;2022-11-27T11:47:22;92927.34;;;5.84;100.00
10716;BME280;5409;42.620;23.316;2022-11-27T11:49:51;92917.34;;;5.77;100.00
10716;BME280;5409;42.620;23.316;2022-11-27T11:52:30;92904.25;;;5.62;100.00
10716;BME280;5409;42.620;23.316;2022-11-27T11:55:07;92913.84;;;5.73;100.00
10716;BME280;5409;42.620;23.316;2022-11-27T11:57:51;92913.06;;;5.73;100.00
10716;BME280;5409;42.620;23.316;2022-11-27T12:00:23;92909.97;;;5.74;100.00
10716;BME280;5409;42.620;23.316;2022-11-27T12:03:05;92907.34;;;5.64;100.00
10716;BME280;5409;42.620;23.316;2022-11-27T12:05:39;92904.22;;;5.65;100.00
10716;BME280;5409;42.620;23.316;2022-11-27T12:08:31;92900.38;;;5.63;100.00
10716;BME280;5409;42.620;23.316;2022-11-27T12:11:06;92898.03;;;5.68;100.00
10716;BME280;5409;42.620;23.316;2022-11-27T12:13:44;92890.28;;;5.70;100.00
10716;BME280;5409;42.620;23.316;2022-11-27T12:16:21;92892.59;;;5.72;100.00
10716;BME280;5409;42.620;23.316;2022-11-27T12:19:19;92889.50;;;5.70;100.00
10716;BME280;5409;42.620;23.316;2022-11-27T12:21:55;92880.66;;;5.62;100.00
10716;BME280;5409;42.620;23.316;2022-11-27T12:24:34;92884.50;;;5.65;100.00
10716;BME280;5409;42.620;23.316;2022-11-27T12:27:16;92883.75;;;5.64;100.00
10716;BME280;5409;42.620;23.316;2022-11-27T12:30:02;92874.16;;;5.53;100.00
10716;BME280;5409;42.620;23.316;2022-11-27T12:32:49;92882.66;;;5.55;100.00
10716;BME280;5409;42.620;23.316;2022-11-27T12:35:33;92880.34;;;5.50;100.00
10716;BME280;5409;42.620;23.316;2022-11-27T12:38:11;92874.94;;;5.50;100.00
10716;BME280;5409;42.620;23.316;2022-11-27T12:40:55;92878.03;;;5.49;100.00
10716;BME280;5409;42.620;23.316;2022-11-27T12:43:26;92884.59;;;5.48;100.00
10716;BME280;5409;42.620;23.316;2022-11-27T12:45:58;92879.22;;;5.44;100.00
10716;BME280;5409;42.620;23.316;2022-11-27T12:48:30;92874.59;;;5.45;100.00
10716;BME280;5409;42.620;23.316;2022-11-27T12:51:05;92871.09;;;5.44;100.00
10716;BME280;5409;42.620;23.316;2022-11-27T12:53:35;92867.28;;;5.38;100.00
10716;BME280;5409;42.620;23.316;2022-11-27T12:56:08;92873.47;;;5.39;100.00
10716;BME280;5409;42.620;23.316;2022-11-27T12:58:42;92871.53;;;5.36;100.00
10716;BME280;5409;42.620;23.316;2022-11-27T13:01:14;92866.91;;;5.33;100.00
10716;BME280;5409;42.620;23.316;2022-11-27T13:03:47;92868.47;;;5.34;100.00
10716;BME280;5409;42.620;23.316;2022-11-27T13:06:22;92870.44;;;5.26;100.00
10716;BME280;5409;42.620;23.316;2022-11-27T13:08:55;92871.59;;;5.25;100.00
10716;BME280;5409;42.620;23.316;2022-11-27T13:11:27;92868.88;;;5.22;100.00
10716;BME280;5409;42.620;23.316;2022-11-27T13:13:59;92858.50;;;5.13;100.00
10716;BME280;5409;42.620;23.316;2022-11-27T13:16:31;92858.84;;;5.19;100.00
10716;BME280;5409;42.620;23.316;2022-11-27T13:19:04;92866.59;;;5.17;100.00
10716;BME280;5409;42.620;23.316;2022-11-27T13:21:35;92862.00;;;5.07;100.00
10716;BME280;5409;42.620;23.316;2022-11-27T13:24:04;92873.94;;;5.16;100.00